Sultan Ismail Petra Airport
WMKC : now visible

Airfield :











YOU CAN JOIN US ON...

 
LOGIN :

Register | Disclaimer

   EN    FR    IT 

 









Legend :    VFR   Marginal VFR   IFR   Intensive IFR   Very Intensive IFR
Visi :
Ceiling :
>= 8 km
>= 3000ft
5 to 8 km
1000 to 3000 ft
1500m to 5 km
500 to 1000 ft
800 to 1500m
200 to 500 ft
< 800m
< 200 ft
Symbols :   Thunderstorms  Fog  Heavy snow  Heavy precipitations  Wind > 20 kt






- Airport Elevation : 16 ft
- IATA code : KBR


WMKC - Sultan Ismail Petra

CURRENT METAR :
  • 270100Z 21005KT 140V270 9999 FEW020 26/23 Q1010

EXPIRED METARs :
  • 270000Z 22004KT 160V260 9999 FEW020 25/23 Q1009
  • 262300Z 22004KT 160V280 9999 FEW020 25/23 Q1009
  • 262200Z 22004KT 160V260 9999 FEW020 25/22 Q1008

TAF TAF WMKC
Valid from the 27 at 00:00 until the 28 at 00:00 UTC


262300Z 2700/2800 23006KT 9999 FEW018
BECMG 2709/2710 34006KT FEW017CB
BECMG 2712/2713 VRB03KT FEW020
WMFC FIR / Asia



MET'MAP, your aeronautical weather chart ! - Copyright ORBIFLY December 2007 - Disclaimer

ORBIFLY MET'MAP TEAM :

Programming & Development : Alexandra Zaïnal
Concept & original design : Baudouin d'Aumeries
Assistance for programming : Marc-Olivier Méhu
Technical & hardware support : Manuel Goepfert

Contact : metmap@orbifly.com




SOURCES & CREDITS :

   NOAA       Earth
Advisory